Pilot Mound, Iowa
Current Conditions -  °F | °C
As of 7:15 PM on Saturday 25 Oct 2014 (Local Time) from KBNW Reporting Station
Clear Clear  
Wind Chill: 57°   Ceiling: Unl
Heat Index: 57°   Visibility: 10mi
Dew Point: 37°   Wind: 5mph
Humidity: 48%   Direction: 360°N
Pressure: 30.06"   Gusts: NA
Location:  42.16°N, 94.02°W
Report Text: KBNW 260015Z AUTO 36004KT 10SM CLR 14/03 A3006 RMK AO2
Loading
Personal Weather Stations






























Interactive Weather Map
Tropical Storm Tracking
New forecast layout! Learn more

10-Day Weather Forecast

Advertisements
Track Severe Weather on mobile